createdAt,value
2022-09-10T00:01:59.535Z,30.65
2022-09-10T00:04:28.005Z,31.83
2022-09-10T00:06:55.442Z,30.67
2022-09-10T00:09:22.445Z,28.98
2022-09-10T00:11:49.089Z,33.83
2022-09-10T00:14:22.048Z,34.97
2022-09-10T00:16:50.547Z,33.75
2022-09-10T00:19:18.315Z,34.20
2022-09-10T00:21:45.373Z,34.28
2022-09-10T00:24:12.822Z,35.83
2022-09-10T00:26:39.785Z,33.35
2022-09-10T00:29:08.888Z,34.58
2022-09-10T00:31:36.490Z,36.75
2022-09-10T00:34:05.550Z,33.00
2022-09-10T00:36:36.351Z,35.05
2022-09-10T00:39:08.331Z,36.53
2022-09-10T00:41:37.527Z,33.85
2022-09-10T00:44:26.055Z,34.15
2022-09-10T00:46:54.759Z,36.75
2022-09-10T00:49:33.461Z,37.45
2022-09-10T00:52:00.999Z,37.45
2022-09-10T00:54:30.661Z,37.03
2022-09-10T00:57:02.756Z,38.92
2022-09-10T00:59:30.997Z,39.30
2022-09-10T01:01:59.722Z,40.00
2022-09-10T01:04:28.577Z,38.22
2022-09-10T01:06:56.167Z,39.00
2022-09-10T01:09:24.360Z,38.05
2022-09-10T01:12:12.797Z,37.65
2022-09-10T01:14:54.659Z,39.88
2022-09-10T01:17:34.071Z,38.42
2022-09-10T01:20:19.597Z,35.17
2022-09-10T01:23:17.050Z,39.20
2022-09-10T01:26:12.781Z,39.65
2022-09-10T01:29:10.332Z,40.60
2022-09-10T01:31:42.012Z,38.42
2022-09-10T01:34:25.063Z,39.38
2022-09-10T01:36:55.998Z,40.63
2022-09-10T01:39:24.495Z,41.40
2022-09-10T01:41:54.461Z,43.53
2022-09-10T01:44:46.283Z,40.47
2022-09-10T01:47:27.763Z,40.33
2022-09-10T01:50:12.619Z,41.50
2022-09-10T01:53:05.200Z,40.35
2022-09-10T01:55:57.116Z,44.50
2022-09-10T01:58:24.242Z,42.80
2022-09-10T02:01:18.006Z,42.88
2022-09-10T02:03:48.273Z,42.42
2022-09-10T02:06:19.378Z,43.28
2022-09-10T02:08:52.140Z,42.88
2022-09-10T02:11:19.237Z,44.13
2022-09-10T02:13:49.443Z,44.03
2022-09-10T02:16:39.156Z,41.50
2022-09-10T02:19:06.491Z,44.35
2022-09-10T02:21:33.945Z,44.35
2022-09-10T02:24:08.375Z,45.05
2022-09-10T02:26:38.184Z,45.47
2022-09-10T02:29:07.230Z,46.73
2022-09-10T02:31:34.087Z,44.83
2022-09-10T02:34:03.085Z,43.65
2022-09-10T02:36:31.831Z,46.30
2022-09-10T02:38:59.491Z,45.22
2022-09-10T02:41:28.274Z,43.88
2022-09-10T02:43:55.442Z,46.47
2022-09-10T02:46:22.243Z,47.38
2022-09-10T02:48:48.876Z,50.22
2022-09-10T02:51:15.895Z,51.97
2022-09-10T02:53:42.891Z,48.55
2022-09-10T02:56:09.548Z,50.35
2022-09-10T02:58:36.823Z,51.08
2022-09-10T03:01:10.374Z,49.00
2022-09-10T03:03:39.169Z,50.28
2022-09-10T03:06:06.172Z,49.65
2022-09-10T03:08:33.424Z,48.97
2022-09-10T03:11:00.030Z,50.20
2022-09-10T03:13:28.061Z,51.80
2022-09-10T03:15:58.896Z,48.63
2022-09-10T03:18:27.974Z,48.20
2022-09-10T03:20:54.593Z,47.45
2022-09-10T03:23:21.256Z,51.13
2022-09-10T03:25:49.843Z,48.47
2022-09-10T03:28:21.416Z,48.38
2022-09-10T03:30:48.570Z,47.13
2022-09-10T03:33:21.022Z,47.42
2022-09-10T03:35:52.277Z,47.63
2022-09-10T03:38:18.910Z,48.73
2022-09-10T03:40:46.337Z,48.40
2022-09-10T03:43:13.040Z,47.97
2022-09-10T03:45:39.943Z,49.13
2022-09-10T03:48:06.814Z,49.90
2022-09-10T03:50:33.499Z,48.72
2022-09-10T03:53:03.918Z,48.33
2022-09-10T03:55:30.728Z,49.78
2022-09-10T03:57:58.241Z,48.10
2022-09-10T04:00:27.021Z,46.15
2022-09-10T04:02:53.784Z,47.40
2022-09-10T04:05:21.235Z,49.20
2022-09-10T04:07:48.780Z,48.53
2022-09-10T04:10:15.521Z,51.17
2022-09-10T04:12:42.392Z,48.25
2022-09-10T04:15:09.313Z,49.22
2022-09-10T04:17:36.511Z,52.53
2022-09-10T04:20:04.415Z,50.88
2022-09-10T04:22:31.540Z,48.90
2022-09-10T04:24:59.957Z,49.33
2022-09-10T04:27:26.845Z,49.30
2022-09-10T04:29:53.424Z,47.92
2022-09-10T04:32:20.127Z,50.65
2022-09-10T04:34:46.764Z,47.75
2022-09-10T04:37:18.748Z,51.55
2022-09-10T04:39:46.387Z,50.10
2022-09-10T04:42:19.035Z,51.72
2022-09-10T04:44:49.235Z,49.08
2022-09-10T04:47:17.393Z,51.03
2022-09-10T04:49:44.302Z,51.03
2022-09-10T04:52:13.156Z,51.00
2022-09-10T04:54:40.181Z,44.58
2022-09-10T04:57:07.303Z,42.60
2022-09-10T04:59:35.066Z,40.30
2022-09-10T05:02:03.607Z,40.25
2022-09-10T05:04:30.341Z,44.35
2022-09-10T05:06:59.469Z,41.55
2022-09-10T05:09:31.079Z,40.95
2022-09-10T05:11:59.212Z,45.92
2022-09-10T05:14:26.532Z,45.92
2022-09-10T05:16:53.135Z,47.58
2022-09-10T05:19:21.317Z,42.95
2022-09-10T05:21:53.942Z,41.72
2022-09-10T05:24:21.121Z,47.70
2022-09-10T05:26:48.413Z,43.53
2022-09-10T05:29:16.617Z,50.22
2022-09-10T05:31:43.621Z,50.40
2022-09-10T05:34:10.580Z,44.85
2022-09-10T05:36:38.048Z,45.67
2022-09-10T05:39:04.833Z,45.75
2022-09-10T05:41:35.221Z,46.95
2022-09-10T05:44:02.176Z,46.70
2022-09-10T05:46:32.991Z,44.40
2022-09-10T05:49:07.697Z,40.95
2022-09-10T05:51:34.291Z,40.60
2022-09-10T05:54:03.679Z,42.20
2022-09-10T05:56:32.134Z,39.50
2022-09-10T05:58:59.108Z,41.22
2022-09-10T06:01:26.143Z,41.33
2022-09-10T06:03:53.725Z,34.17
2022-09-10T06:06:21.205Z,31.60
2022-09-10T06:08:56.239Z,22.23
2022-09-10T06:11:41.828Z,25.85
2022-09-10T06:14:10.296Z,21.52
2022-09-10T06:16:36.857Z,19.65
2022-09-10T06:19:03.660Z,19.98
2022-09-10T06:21:30.827Z,19.05
2022-09-10T06:23:58.221Z,13.35
2022-09-10T06:26:27.600Z,12.73
2022-09-10T06:28:57.944Z,12.82
2022-09-10T06:31:25.079Z,11.38
2022-09-10T06:33:54.035Z,10.98
2022-09-10T06:36:24.027Z,11.30
2022-09-10T06:38:55.595Z,11.25
2022-09-10T06:41:27.162Z,10.32
2022-09-10T06:44:00.300Z,14.55
2022-09-10T06:47:16.024Z,9.38
2022-09-10T06:49:24.759Z,9.80
2022-09-10T06:51:52.338Z,10.25
2022-09-10T06:54:19.217Z,9.85
2022-09-10T06:56:48.773Z,14.05
2022-09-10T06:59:17.023Z,12.90
2022-09-10T07:01:47.589Z,13.57
2022-09-10T07:04:14.979Z,11.82
2022-09-10T07:06:41.841Z,11.93
2022-09-10T07:09:14.904Z,11.95
2022-09-10T07:11:51.315Z,11.60
2022-09-10T07:14:18.712Z,12.65
2022-09-10T07:16:47.479Z,13.40
2022-09-10T07:19:15.354Z,13.27
2022-09-10T07:21:44.825Z,12.73
2022-09-10T07:24:14.437Z,13.98
2022-09-10T07:26:57.102Z,13.52
2022-09-10T07:29:24.069Z,13.80
2022-09-10T07:31:55.002Z,14.10
2022-09-10T07:34:24.215Z,14.05
2022-09-10T07:36:50.784Z,12.13
2022-09-10T07:39:22.352Z,13.25
2022-09-10T07:41:52.332Z,12.80
2022-09-10T07:44:22.261Z,12.88
2022-09-10T07:46:49.645Z,10.43
2022-09-10T07:49:17.622Z,10.90
2022-09-10T07:51:47.562Z,12.70
2022-09-10T07:54:17.317Z,11.57
2022-09-10T07:56:49.813Z,11.55
2022-09-10T07:59:16.807Z,12.13
2022-09-10T08:01:50.261Z,12.48
2022-09-10T08:04:19.128Z,10.45
2022-09-10T08:06:46.324Z,12.20
2022-09-10T08:09:14.802Z,12.35
2022-09-10T08:11:48.576Z,9.70
2022-09-10T08:14:17.136Z,10.52
2022-09-10T08:16:48.132Z,9.77
2022-09-10T08:19:18.034Z,9.82
2022-09-10T08:21:45.574Z,9.50
2022-09-10T08:24:15.672Z,8.30
2022-09-10T08:26:46.530Z,9.27
2022-09-10T08:29:13.763Z,8.27
2022-09-10T08:31:41.477Z,7.65
2022-09-10T08:34:16.728Z,8.27
2022-09-10T08:36:49.684Z,8.60
2022-09-10T08:39:16.284Z,8.60
2022-09-10T08:42:10.956Z,7.90
2022-09-10T08:45:02.865Z,7.97
2022-09-10T08:47:55.421Z,7.47
2022-09-10T08:50:25.048Z,7.65
2022-09-10T08:53:19.393Z,6.40
2022-09-10T08:55:49.080Z,5.93
2022-09-10T08:58:19.060Z,6.20
2022-09-10T09:00:54.002Z,5.97
2022-09-10T09:03:25.171Z,6.15
2022-09-10T09:05:56.027Z,5.80
2022-09-10T09:08:33.298Z,6.05
2022-09-10T09:11:26.951Z,5.72
2022-09-10T09:14:17.168Z,5.53
2022-09-10T09:16:47.284Z,5.45
2022-09-10T09:19:41.745Z,5.82
2022-09-10T09:22:18.959Z,6.13
2022-09-10T09:25:12.831Z,6.22
2022-09-10T09:27:42.271Z,5.57
2022-09-10T09:30:23.092Z,5.80
2022-09-10T09:32:51.404Z,5.63
2022-09-10T09:35:40.959Z,5.40
2022-09-10T09:38:44.676Z,3.70
2022-09-10T09:41:26.619Z,4.93
2022-09-10T09:44:05.343Z,4.60
2022-09-10T09:46:34.373Z,4.40
2022-09-10T09:51:21.279Z,4.82
2022-09-10T09:54:01.025Z,4.78
2022-09-10T09:56:49.785Z,3.70
2022-09-10T09:59:31.508Z,4.05
2022-09-10T10:02:21.576Z,3.92
2022-09-10T10:05:19.413Z,2.70
2022-09-10T10:07:48.663Z,3.65
2022-09-10T10:10:26.421Z,4.10
2022-09-10T10:12:54.935Z,3.42
2022-09-10T10:15:40.973Z,3.10
2022-09-10T10:18:22.981Z,3.05
2022-09-10T10:21:22.206Z,2.67
2022-09-10T10:23:50.547Z,3.63
2022-09-10T10:26:20.297Z,2.95
2022-09-10T10:29:07.482Z,2.47
2022-09-10T10:31:39.124Z,3.42
2022-09-10T10:34:15.054Z,2.88
2022-09-10T10:39:52.494Z,3.65
2022-09-10T10:42:29.473Z,2.70
2022-09-10T10:45:31.068Z,2.78
2022-09-10T10:48:11.579Z,2.97
2022-09-10T10:51:03.247Z,2.55
2022-09-10T10:53:51.645Z,2.45
2022-09-10T10:56:28.653Z,2.45
2022-09-10T10:59:33.752Z,2.38
2022-09-10T11:02:33.390Z,2.53
2022-09-10T11:05:10.625Z,3.38
2022-09-10T11:07:43.688Z,3.03
2022-09-10T11:10:14.943Z,3.60
2022-09-10T11:13:19.864Z,3.35
2022-09-10T11:16:09.597Z,3.85
2022-09-10T11:18:54.092Z,3.38
2022-09-10T11:21:41.707Z,3.58
2022-09-10T11:24:19.371Z,3.22
2022-09-10T11:26:56.583Z,3.85
2022-09-10T11:29:28.400Z,3.45
2022-09-10T11:34:47.486Z,3.10
2022-09-10T11:37:26.401Z,3.08
2022-09-10T11:39:59.153Z,2.72
2022-09-10T11:42:39.709Z,3.03
2022-09-10T11:45:33.612Z,2.95
2022-09-10T11:48:27.462Z,2.70
2022-09-10T11:51:01.997Z,2.65
2022-09-10T11:53:30.403Z,2.95
2022-09-10T11:56:20.248Z,3.15
2022-09-10T11:59:00.237Z,3.80
2022-09-10T12:02:04.088Z,2.75
2022-09-10T12:04:42.736Z,3.30
2022-09-10T12:07:56.936Z,2.88
2022-09-10T12:10:35.564Z,2.78
2022-09-10T12:13:09.703Z,3.25
2022-09-10T12:15:37.800Z,4.03
2022-09-10T12:18:14.963Z,4.28
2022-09-10T12:20:52.859Z,4.30
2022-09-10T12:23:29.275Z,4.63
2022-09-10T12:26:05.491Z,5.88
2022-09-10T12:28:53.800Z,5.88
2022-09-10T12:31:21.947Z,5.05
2022-09-10T12:33:48.397Z,4.93
2022-09-10T12:36:34.882Z,4.40
2022-09-10T12:39:28.624Z,4.25
2022-09-10T12:41:58.531Z,5.53
2022-09-10T12:44:37.568Z,5.28
2022-09-10T12:47:16.479Z,5.72
2022-09-10T12:49:55.319Z,6.18
2022-09-10T12:52:53.189Z,6.72
2022-09-10T12:55:53.159Z,7.10
2022-09-10T12:58:31.989Z,7.60
2022-09-10T13:01:28.913Z,6.88
2022-09-10T13:03:58.544Z,7.85
2022-09-10T13:06:40.571Z,7.32
2022-09-10T13:09:37.800Z,7.28
2022-09-10T13:12:18.141Z,7.78
2022-09-10T13:14:50.240Z,12.57
2022-09-10T13:17:36.484Z,8.90
2022-09-10T13:22:33.434Z,7.97
2022-09-10T13:25:24.793Z,7.50
2022-09-10T13:27:51.591Z,7.75
2022-09-10T13:30:20.760Z,8.73
2022-09-10T13:32:55.480Z,7.82
2022-09-10T13:38:19.265Z,6.80
2022-09-10T13:41:06.376Z,6.57
2022-09-10T13:44:07.137Z,5.55
2022-09-10T13:46:55.450Z,5.15
2022-09-10T13:49:52.823Z,4.07
2022-09-10T13:52:27.064Z,5.45
2022-09-10T13:54:56.280Z,4.00
2022-09-10T13:57:40.778Z,4.55
2022-09-10T14:00:18.106Z,4.13
2022-09-10T14:02:48.579Z,4.55
2022-09-10T14:05:30.375Z,4.05
2022-09-10T14:08:11.558Z,3.25
2022-09-10T14:10:59.344Z,4.50
2022-09-10T14:13:39.713Z,5.20
2022-09-10T14:18:43.369Z,4.22
2022-09-10T14:21:13.556Z,4.72
2022-09-10T14:23:45.785Z,4.72
2022-09-10T14:26:17.238Z,4.38
2022-09-10T14:28:59.624Z,4.60
2022-09-10T14:31:26.541Z,4.00
2022-09-10T14:33:55.728Z,4.70
2022-09-10T14:36:35.924Z,4.18
2022-09-10T14:39:20.313Z,4.25
2022-09-10T14:41:47.497Z,3.97
2022-09-10T14:44:39.531Z,3.85
2022-09-10T14:51:58.510Z,5.15
2022-09-10T14:54:26.749Z,4.35
2022-09-10T14:56:56.526Z,4.07
2022-09-10T14:59:23.028Z,3.67
2022-09-10T15:01:50.095Z,4.63
2022-09-10T15:04:26.177Z,4.35
2022-09-10T15:06:54.856Z,3.95
2022-09-10T15:09:22.061Z,4.32
2022-09-10T15:12:04.547Z,4.38
2022-09-10T15:14:35.358Z,4.28
2022-09-10T15:17:02.796Z,4.30
2022-09-10T15:19:29.523Z,4.28
2022-09-10T15:21:57.539Z,4.82
2022-09-10T15:24:25.202Z,3.60
2022-09-10T15:26:52.371Z,3.55
2022-09-10T15:29:19.014Z,3.55
2022-09-10T15:31:46.076Z,4.00
2022-09-10T15:34:15.664Z,3.50
2022-09-10T15:36:42.530Z,4.22
2022-09-10T15:39:12.900Z,4.90
2022-09-10T15:41:45.360Z,4.82
2022-09-10T15:44:12.536Z,4.50
2022-09-10T15:46:42.076Z,4.03
2022-09-10T15:49:08.796Z,3.90
2022-09-10T15:51:35.340Z,4.20
2022-09-10T15:54:04.904Z,4.82
2022-09-10T15:56:33.596Z,4.82
2022-09-10T15:59:00.898Z,4.20
2022-09-10T16:01:30.949Z,4.85
2022-09-10T16:04:04.416Z,4.28
2022-09-10T16:06:39.357Z,4.95
2022-09-10T16:09:11.889Z,4.75
2022-09-10T16:11:40.156Z,4.80
2022-09-10T16:14:08.558Z,4.55
2022-09-10T16:16:36.187Z,5.28
2022-09-10T16:19:09.144Z,4.25
2022-09-10T16:21:37.723Z,4.07
2022-09-10T16:24:05.528Z,4.25
2022-09-10T16:26:35.826Z,5.38
2022-09-10T16:29:06.370Z,4.47
2022-09-10T16:31:35.372Z,4.88
2022-09-10T16:34:04.704Z,4.35
2022-09-10T16:36:33.591Z,4.95
2022-09-10T16:39:05.117Z,5.32
2022-09-10T16:41:33.018Z,5.47
2022-09-10T16:44:00.539Z,5.15
2022-09-10T16:46:28.183Z,4.97
2022-09-10T16:48:56.066Z,4.60
2022-09-10T16:53:36.933Z,6.00
2022-09-10T16:56:06.994Z,5.47
2022-09-10T16:58:36.015Z,5.22
2022-09-10T17:01:04.732Z,5.35
2022-09-10T17:03:32.913Z,5.97
2022-09-10T17:06:00.157Z,4.78
2022-09-10T17:08:29.239Z,5.97
2022-09-10T17:10:56.788Z,5.93
2022-09-10T17:13:23.368Z,6.80
2022-09-10T17:15:50.672Z,6.32
2022-09-10T17:18:17.192Z,5.85
2022-09-10T17:20:44.148Z,5.70
2022-09-10T17:23:12.764Z,8.57
2022-09-10T17:25:39.428Z,6.10
2022-09-10T17:28:06.056Z,4.43
2022-09-10T17:30:35.900Z,3.78
2022-09-10T17:33:02.502Z,3.30
2022-09-10T17:35:29.080Z,3.10
2022-09-10T17:37:55.632Z,3.05
2022-09-10T17:40:23.910Z,3.28
2022-09-10T17:42:50.396Z,3.13
2022-09-10T17:47:40.803Z,3.85
2022-09-10T17:50:08.252Z,4.53
2022-09-10T17:52:35.381Z,4.28
2022-09-10T17:55:02.860Z,5.28
2022-09-10T17:57:30.142Z,5.38
2022-09-10T17:59:57.667Z,4.10
2022-09-10T18:02:24.869Z,4.10
2022-09-10T18:04:51.647Z,4.45
2022-09-10T18:07:18.345Z,5.38
2022-09-10T18:09:45.233Z,7.03
2022-09-10T18:12:13.452Z,4.68
2022-09-10T18:14:40.189Z,5.32
2022-09-10T18:17:07.293Z,4.25
2022-09-10T18:19:34.354Z,3.65
2022-09-10T18:22:01.464Z,4.47
2022-09-10T18:24:28.415Z,3.15
2022-09-10T18:26:55.352Z,4.05
2022-09-10T18:29:29.011Z,3.80
2022-09-10T18:32:01.550Z,3.83
2022-09-10T18:34:31.189Z,3.53
2022-09-10T18:37:00.410Z,3.88
2022-09-10T18:39:29.243Z,3.92
2022-09-10T18:41:59.059Z,3.20
2022-09-10T18:44:29.841Z,3.40
2022-09-10T18:46:58.821Z,2.83
2022-09-10T18:49:26.861Z,2.78
2022-09-10T18:51:55.133Z,3.05
2022-09-10T18:54:23.179Z,3.08
2022-09-10T18:56:52.713Z,3.25
2022-09-10T18:59:21.315Z,3.55
2022-09-10T19:01:48.678Z,4.10
2022-09-10T19:04:18.564Z,3.28
2022-09-10T19:06:47.337Z,4.43
2022-09-10T19:09:22.053Z,3.10
2022-09-10T19:11:50.478Z,3.25
2022-09-10T19:14:23.145Z,3.47
2022-09-10T19:16:51.076Z,4.18
2022-09-10T19:19:22.169Z,4.00
2022-09-10T19:21:56.992Z,3.60
2022-09-10T19:24:44.139Z,4.70
2022-09-10T19:27:13.228Z,5.30
2022-09-10T19:29:43.089Z,4.97
2022-09-10T19:32:11.196Z,5.57
2022-09-10T19:34:38.386Z,5.53
2022-09-10T19:37:07.534Z,6.05
2022-09-10T19:39:34.289Z,6.28
2022-09-10T19:42:01.389Z,7.38
2022-09-10T19:44:28.174Z,6.32
2022-09-10T19:46:55.294Z,7.00
2022-09-10T19:49:22.369Z,7.20
2022-09-10T19:51:49.438Z,6.88
2022-09-10T19:54:16.285Z,7.47
2022-09-10T19:56:44.863Z,7.80
2022-09-10T19:59:15.860Z,8.20
2022-09-10T20:01:44.911Z,7.53
2022-09-10T20:04:12.636Z,7.80
2022-09-10T20:06:39.456Z,7.82
2022-09-10T20:09:07.742Z,7.78
2022-09-10T20:11:35.615Z,9.20
2022-09-10T20:14:12.441Z,9.93
2022-09-10T20:16:44.343Z,9.20
2022-09-10T20:21:40.047Z,9.73
2022-09-10T20:24:07.598Z,9.73
2022-09-10T20:26:38.109Z,11.07
2022-09-10T20:29:13.863Z,10.05
2022-09-10T20:31:42.075Z,9.13
2022-09-10T20:34:17.571Z,9.68
2022-09-10T20:36:45.083Z,9.10
2022-09-10T20:39:15.164Z,9.38
2022-09-10T20:41:42.981Z,8.52
2022-09-10T20:44:13.146Z,8.02
2022-09-10T20:46:41.501Z,8.65
2022-09-10T20:49:10.709Z,8.65
2022-09-10T20:51:38.808Z,8.48
2022-09-10T20:54:07.629Z,9.88
2022-09-10T20:56:34.588Z,8.32
2022-09-10T20:59:01.933Z,7.65
2022-09-10T21:01:33.053Z,8.82
2022-09-10T21:04:01.330Z,7.67
2022-09-10T21:06:30.099Z,9.93
2022-09-10T21:08:57.029Z,9.60
2022-09-10T21:11:25.939Z,9.80
2022-09-10T21:13:55.123Z,9.65
2022-09-10T21:16:24.372Z,10.20
2022-09-10T21:18:55.044Z,10.15
2022-09-10T21:21:26.816Z,9.00
2022-09-10T21:23:58.815Z,11.38
2022-09-10T21:28:56.234Z,9.73
2022-09-10T21:31:24.485Z,10.85
2022-09-10T21:33:51.608Z,11.68
2022-09-10T21:36:20.235Z,13.00
2022-09-10T21:38:51.517Z,13.82
2022-09-10T21:41:24.179Z,12.48
2022-09-10T21:43:51.749Z,14.82
2022-09-10T21:46:19.510Z,13.45
2022-09-10T21:48:46.219Z,11.75
2022-09-10T21:51:16.141Z,10.85
2022-09-10T21:56:12.593Z,8.82
2022-09-10T21:58:39.910Z,9.63
2022-09-10T22:01:15.201Z,8.70
2022-09-10T22:03:41.974Z,8.80
2022-09-10T22:06:30.449Z,8.32
2022-09-10T22:09:02.575Z,7.90
2022-09-10T22:11:38.107Z,8.73
2022-09-10T22:14:07.955Z,12.25
2022-09-10T22:16:35.559Z,12.00
2022-09-10T22:19:08.804Z,11.13
2022-09-10T22:21:38.168Z,10.90
2022-09-10T22:24:06.309Z,9.20
2022-09-10T22:26:33.763Z,10.85
2022-09-10T22:29:00.756Z,9.85
2022-09-10T22:31:31.240Z,11.98
2022-09-10T22:34:03.275Z,11.50
2022-09-10T22:39:02.486Z,13.32
2022-09-10T22:41:31.658Z,11.88
2022-09-10T22:43:58.496Z,12.55
2022-09-10T22:46:26.513Z,11.52
2022-09-10T22:48:53.524Z,13.15
2022-09-10T22:51:25.411Z,13.55
2022-09-10T22:53:54.288Z,15.95
2022-09-10T22:56:22.359Z,16.00
2022-09-10T22:58:52.488Z,16.55
2022-09-10T23:01:21.981Z,15.90
2022-09-10T23:03:48.834Z,16.95
2022-09-10T23:06:21.651Z,17.00
2022-09-10T23:08:51.492Z,16.35
2022-09-10T23:11:27.009Z,15.07
2022-09-10T23:13:57.382Z,14.60
2022-09-10T23:16:26.384Z,16.13
2022-09-10T23:18:54.952Z,16.52
2022-09-10T23:21:23.941Z,14.35
2022-09-10T23:24:03.096Z,18.67
2022-09-10T23:26:30.439Z,16.63
2022-09-10T23:28:57.444Z,16.88
2022-09-10T23:31:29.455Z,16.48
2022-09-10T23:36:25.229Z,15.23
2022-09-10T23:38:51.888Z,15.75
2022-09-10T23:41:18.456Z,18.05
2022-09-10T23:43:45.443Z,17.27
2022-09-10T23:46:13.153Z,19.42
2022-09-10T23:48:42.530Z,17.40
2022-09-10T23:51:12.005Z,17.13
2022-09-10T23:53:39.448Z,18.30
2022-09-10T23:56:06.835Z,18.10
2022-09-10T23:58:33.391Z,20.15
